createdAt,value
2022-08-14T00:01:54.624Z,5.85
2022-08-14T00:04:34.410Z,5.43
2022-08-14T00:07:07.056Z,5.57
2022-08-14T00:09:39.624Z,5.77
2022-08-14T00:12:24.105Z,5.43
2022-08-14T00:14:54.920Z,5.05
2022-08-14T00:17:23.057Z,5.00
2022-08-14T00:19:51.770Z,5.38
2022-08-14T00:22:21.949Z,5.65
2022-08-14T00:25:09.099Z,4.93
2022-08-14T00:27:37.983Z,4.80
2022-08-14T00:30:14.329Z,4.95
2022-08-14T00:32:55.634Z,5.20
2022-08-14T00:36:37.489Z,5.22
2022-08-14T00:38:11.541Z,6.78
2022-08-14T00:40:39.045Z,5.30
2022-08-14T00:43:06.482Z,6.55
2022-08-14T00:45:34.001Z,7.45
2022-08-14T00:48:00.993Z,6.68
2022-08-14T00:50:31.280Z,5.50
2022-08-14T00:53:00.325Z,5.53
2022-08-14T00:55:28.062Z,5.40
2022-08-14T01:00:51.357Z,5.47
2022-08-14T01:03:26.212Z,4.90
2022-08-14T01:05:53.295Z,3.88
2022-08-14T01:11:18.804Z,5.40
2022-08-14T01:13:55.892Z,5.32
2022-08-14T01:16:31.305Z,6.30
2022-08-14T01:19:19.813Z,4.70
2022-08-14T01:21:52.864Z,4.70
2022-08-14T01:24:30.267Z,3.78
2022-08-14T01:27:00.369Z,5.35
2022-08-14T01:29:58.356Z,5.10
2022-08-14T01:32:23.224Z,5.50
2022-08-14T01:35:17.357Z,6.05
2022-08-14T01:37:54.865Z,6.40
2022-08-14T01:40:36.566Z,6.13
2022-08-14T01:43:18.698Z,6.35
2022-08-14T01:45:57.652Z,6.22
2022-08-14T01:48:37.193Z,5.78
2022-08-14T01:51:06.216Z,5.50
2022-08-14T01:53:55.588Z,5.32
2022-08-14T01:56:36.943Z,5.85
2022-08-14T01:59:09.972Z,5.28
2022-08-14T02:01:38.510Z,5.75
2022-08-14T02:04:40.712Z,5.55
2022-08-14T02:06:56.990Z,5.57
2022-08-14T02:09:24.467Z,5.50
2022-08-14T02:11:54.373Z,4.85
2022-08-14T02:14:31.236Z,5.40
2022-08-14T02:16:59.272Z,4.13
2022-08-14T02:19:28.452Z,3.92
2022-08-14T02:22:02.899Z,4.57
2022-08-14T02:24:39.725Z,4.25
2022-08-14T02:28:26.072Z,4.30
2022-08-14T02:30:00.973Z,4.13
2022-08-14T02:32:30.436Z,4.80
2022-08-14T02:35:13.902Z,4.10
2022-08-14T02:37:48.422Z,5.28
2022-08-14T02:40:18.632Z,5.00
2022-08-14T02:45:38.810Z,3.90
2022-08-14T02:49:01.293Z,4.78
2022-08-14T02:51:02.764Z,3.97
2022-08-14T02:53:31.512Z,4.57
2022-08-14T02:56:03.160Z,4.50
2022-08-14T02:58:42.314Z,5.15
2022-08-14T03:01:10.433Z,4.50
2022-08-14T03:03:39.086Z,4.55
2022-08-14T03:06:09.022Z,5.72
2022-08-14T03:08:38.486Z,5.40
2022-08-14T03:11:09.438Z,4.47
2022-08-14T03:13:39.698Z,4.40
2022-08-14T03:16:20.136Z,4.95
2022-08-14T03:18:59.756Z,3.78
2022-08-14T03:21:27.179Z,4.10
2022-08-14T03:24:21.662Z,4.85
2022-08-14T03:26:57.324Z,4.50
2022-08-14T03:29:26.405Z,5.00
2022-08-14T03:31:54.298Z,5.53
2022-08-14T03:34:47.755Z,4.75
2022-08-14T03:37:51.035Z,4.43
2022-08-14T03:40:00.441Z,4.60
2022-08-14T03:42:35.778Z,4.13
2022-08-14T03:45:25.560Z,4.25
2022-08-14T03:47:58.402Z,4.80
2022-08-14T03:50:31.374Z,4.53
2022-08-14T03:53:01.933Z,4.50
2022-08-14T03:55:30.423Z,4.88
2022-08-14T03:58:00.503Z,4.60
2022-08-14T04:00:44.243Z,4.63
2022-08-14T04:03:18.075Z,5.13
2022-08-14T04:05:48.872Z,5.18
2022-08-14T04:08:29.691Z,5.15
2022-08-14T04:11:01.660Z,4.60
2022-08-14T04:13:34.665Z,4.88
2022-08-14T04:16:12.382Z,4.97
2022-08-14T04:18:45.882Z,4.78
2022-08-14T04:21:16.116Z,4.30
2022-08-14T04:23:44.651Z,4.97
2022-08-14T04:26:27.316Z,4.97
2022-08-14T04:29:15.182Z,4.90
2022-08-14T04:32:59.321Z,5.43
2022-08-14T04:34:30.425Z,4.28
2022-08-14T04:37:22.410Z,4.68
2022-08-14T04:40:11.101Z,4.80
2022-08-14T04:42:56.848Z,5.10
2022-08-14T04:45:25.026Z,4.20
2022-08-14T04:48:12.529Z,4.18
2022-08-14T04:50:53.947Z,4.47
2022-08-14T04:53:35.500Z,4.57
2022-08-14T04:56:30.216Z,4.22
2022-08-14T04:59:02.141Z,4.03
2022-08-14T05:01:33.922Z,4.45
2022-08-14T05:04:08.724Z,4.50
2022-08-14T05:06:42.335Z,4.30
2022-08-14T05:09:14.190Z,4.40
2022-08-14T05:11:42.471Z,4.15
2022-08-14T05:17:01.807Z,3.80
2022-08-14T05:19:32.034Z,4.50
2022-08-14T05:22:16.789Z,4.03
2022-08-14T05:24:48.426Z,4.57
2022-08-14T05:27:20.030Z,3.78
2022-08-14T05:29:51.063Z,3.80
2022-08-14T05:32:18.077Z,3.80
2022-08-14T05:34:46.057Z,3.90
2022-08-14T05:37:15.345Z,5.10
2022-08-14T05:39:43.593Z,4.10
2022-08-14T05:42:21.456Z,4.70
2022-08-14T05:44:49.563Z,4.55
2022-08-14T05:47:21.578Z,3.83
2022-08-14T05:49:48.650Z,3.80
2022-08-14T05:52:17.969Z,3.85
2022-08-14T05:57:13.052Z,3.60
2022-08-14T05:59:42.054Z,2.58
2022-08-14T06:02:11.024Z,2.50
2022-08-14T06:04:41.096Z,2.78
2022-08-14T06:07:09.562Z,2.63
2022-08-14T06:09:40.616Z,2.95
2022-08-14T06:12:11.888Z,2.90
2022-08-14T06:14:39.429Z,2.92
2022-08-14T06:17:06.899Z,2.70
2022-08-14T06:19:33.883Z,2.70
2022-08-14T06:22:01.704Z,2.25
2022-08-14T06:24:30.508Z,2.30
2022-08-14T06:27:09.965Z,2.20
2022-08-14T06:29:41.141Z,2.10
2022-08-14T06:32:37.418Z,2.60
2022-08-14T06:35:12.122Z,2.10
2022-08-14T06:37:45.303Z,1.90
2022-08-14T06:40:27.220Z,1.90
2022-08-14T06:43:03.541Z,2.50
2022-08-14T06:45:32.115Z,1.80
2022-08-14T06:48:00.483Z,1.90
2022-08-14T06:50:30.300Z,2.00
2022-08-14T06:53:00.479Z,2.17
2022-08-14T06:55:28.162Z,1.95
2022-08-14T06:57:58.518Z,2.08
2022-08-14T07:00:30.828Z,2.03
2022-08-14T07:03:17.711Z,1.70
2022-08-14T07:05:57.871Z,2.10
2022-08-14T07:08:32.008Z,2.35
2022-08-14T07:11:04.327Z,2.10
2022-08-14T07:13:33.020Z,1.90
2022-08-14T07:16:05.347Z,1.70
2022-08-14T07:18:35.463Z,2.22
2022-08-14T07:21:04.648Z,2.10
2022-08-14T07:23:33.090Z,1.70
2022-08-14T07:26:04.983Z,2.03
2022-08-14T07:28:36.045Z,2.00
2022-08-14T07:31:12.597Z,1.95
2022-08-14T07:33:51.655Z,1.83
2022-08-14T07:36:27.290Z,1.60
2022-08-14T07:39:03.219Z,1.67
2022-08-14T07:41:39.463Z,2.10
2022-08-14T07:44:29.260Z,1.42
2022-08-14T07:46:58.422Z,1.90
2022-08-14T07:49:26.270Z,1.75
2022-08-14T07:51:53.677Z,1.70
2022-08-14T07:54:23.159Z,1.73
2022-08-14T07:57:11.866Z,1.80
2022-08-14T07:59:44.448Z,1.90
2022-08-14T08:02:20.622Z,2.42
2022-08-14T08:04:55.091Z,2.13
2022-08-14T08:07:29.659Z,1.65
2022-08-14T08:09:59.835Z,2.13
2022-08-14T08:12:31.226Z,1.90
2022-08-14T08:15:05.998Z,1.73
2022-08-14T08:17:42.519Z,1.60
2022-08-14T08:20:16.824Z,1.75
2022-08-14T08:22:49.967Z,1.70
2022-08-14T08:25:24.215Z,1.85
2022-08-14T08:28:08.366Z,2.00
2022-08-14T08:30:37.990Z,2.10
2022-08-14T08:33:16.994Z,1.83
2022-08-14T08:35:50.496Z,1.85
2022-08-14T08:39:17.446Z,1.92
2022-08-14T08:41:13.009Z,2.20
2022-08-14T08:43:46.023Z,1.92
2022-08-14T08:46:23.541Z,2.00
2022-08-14T08:51:34.231Z,1.70
2022-08-14T08:54:15.176Z,1.70
2022-08-14T08:56:52.032Z,1.75
2022-08-14T08:59:20.375Z,2.20
2022-08-14T09:01:56.424Z,2.38
2022-08-14T09:04:34.937Z,2.30
2022-08-14T09:07:10.761Z,2.30
2022-08-14T09:09:54.499Z,2.13
2022-08-14T09:12:31.623Z,2.08
2022-08-14T09:15:02.473Z,1.90
2022-08-14T09:17:30.431Z,2.28
2022-08-14T09:19:57.831Z,2.42
2022-08-14T09:22:35.794Z,2.00
2022-08-14T09:25:07.822Z,2.10
2022-08-14T09:27:37.223Z,2.50
2022-08-14T09:30:31.379Z,2.40
2022-08-14T09:33:09.111Z,2.53
2022-08-14T09:36:10.805Z,2.03
2022-08-14T09:38:53.836Z,2.60
2022-08-14T09:42:20.046Z,2.30
2022-08-14T09:45:20.180Z,2.35
2022-08-14T09:47:52.113Z,2.28
2022-08-14T09:50:23.754Z,2.78
2022-08-14T09:53:18.025Z,3.05
2022-08-14T09:55:46.011Z,2.63
2022-08-14T09:58:19.610Z,2.38
2022-08-14T10:00:50.843Z,3.33
2022-08-14T10:03:33.898Z,3.10
2022-08-14T10:06:08.747Z,3.25
2022-08-14T10:08:51.794Z,2.60
2022-08-14T10:11:25.691Z,4.35
2022-08-14T10:14:34.788Z,3.88
2022-08-14T10:17:05.182Z,3.40
2022-08-14T10:19:36.482Z,3.92
2022-08-14T10:23:12.613Z,3.92
2022-08-14T10:24:59.779Z,4.03
2022-08-14T10:27:28.123Z,3.83
2022-08-14T10:29:59.960Z,3.75
2022-08-14T10:32:28.488Z,3.78
2022-08-14T10:35:13.661Z,3.83
2022-08-14T10:37:50.760Z,4.10
2022-08-14T10:40:43.584Z,4.50
2022-08-14T10:43:23.947Z,4.03
2022-08-14T10:46:21.993Z,3.78
2022-08-14T10:49:04.196Z,4.22
2022-08-14T10:51:39.780Z,4.05
2022-08-14T10:54:16.279Z,4.45
2022-08-14T10:56:44.695Z,4.40
2022-08-14T10:59:11.928Z,4.30
2022-08-14T11:01:40.839Z,4.18
2022-08-14T11:04:25.312Z,4.15
2022-08-14T11:06:54.264Z,4.45
2022-08-14T11:09:21.540Z,4.10
2022-08-14T11:12:34.188Z,3.75
2022-08-14T11:15:01.798Z,4.65
2022-08-14T11:17:33.575Z,3.95
2022-08-14T11:20:02.667Z,4.82
2022-08-14T11:25:21.359Z,4.35
2022-08-14T11:27:50.573Z,4.40
2022-08-14T11:33:09.106Z,4.72
2022-08-14T11:35:47.314Z,4.63
2022-08-14T11:38:16.967Z,4.75
2022-08-14T11:40:46.670Z,4.30
2022-08-14T11:43:18.263Z,4.47
2022-08-14T11:45:50.626Z,4.70
2022-08-14T11:49:04.048Z,4.60
2022-08-14T11:51:30.385Z,4.28
2022-08-14T11:54:03.183Z,3.83
2022-08-14T11:56:37.733Z,5.10
2022-08-14T11:59:10.088Z,4.40
2022-08-14T12:01:41.405Z,4.78
2022-08-14T12:04:31.701Z,4.63
2022-08-14T12:07:01.408Z,4.53
2022-08-14T12:09:34.822Z,4.30
2022-08-14T12:12:16.243Z,4.53
2022-08-14T12:15:01.921Z,4.28
2022-08-14T12:17:34.254Z,4.63
2022-08-14T12:20:31.917Z,4.80
2022-08-14T12:23:01.482Z,4.82
2022-08-14T12:25:29.341Z,4.53
2022-08-14T12:27:59.062Z,4.57
2022-08-14T12:30:40.092Z,4.25
2022-08-14T12:33:33.661Z,4.63
2022-08-14T12:36:05.878Z,5.13
2022-08-14T12:38:43.614Z,4.70
2022-08-14T12:41:21.121Z,4.70
2022-08-14T12:43:55.659Z,4.57
2022-08-14T12:46:31.411Z,4.53
2022-08-14T12:49:02.544Z,4.70
2022-08-14T12:51:32.318Z,4.70
2022-08-14T12:54:01.085Z,4.47
2022-08-14T12:56:33.764Z,4.45
2022-08-14T12:59:04.264Z,4.03
2022-08-14T13:01:59.141Z,4.68
2022-08-14T13:04:25.848Z,4.30
2022-08-14T13:06:53.840Z,4.45
2022-08-14T13:09:35.814Z,4.32
2022-08-14T13:12:32.289Z,5.45
2022-08-14T13:14:55.653Z,4.45
2022-08-14T13:17:24.389Z,4.30
2022-08-14T13:19:57.015Z,4.60
2022-08-14T13:22:33.526Z,4.35
2022-08-14T13:25:05.844Z,4.93
2022-08-14T13:27:38.516Z,4.40
2022-08-14T13:30:14.565Z,4.40
2022-08-14T13:32:51.424Z,4.82
2022-08-14T13:35:18.964Z,4.45
2022-08-14T13:37:49.775Z,5.05
2022-08-14T13:40:21.888Z,4.43
2022-08-14T13:42:56.740Z,4.70
2022-08-14T13:45:33.876Z,4.70
2022-08-14T13:51:03.005Z,5.07
2022-08-14T13:53:35.102Z,5.05
2022-08-14T13:56:06.186Z,4.88
2022-08-14T13:58:35.847Z,4.80
2022-08-14T14:01:04.560Z,4.65
2022-08-14T14:03:38.102Z,4.90
2022-08-14T14:06:07.206Z,4.78
2022-08-14T14:08:46.327Z,4.55
2022-08-14T14:11:16.440Z,4.93
2022-08-14T14:13:48.651Z,4.47
2022-08-14T14:16:26.357Z,4.63
2022-08-14T14:19:06.736Z,5.18
2022-08-14T14:21:37.549Z,4.82
2022-08-14T14:24:06.183Z,5.00
2022-08-14T14:26:36.043Z,4.22
2022-08-14T14:29:06.413Z,4.70
2022-08-14T14:31:38.877Z,4.28
2022-08-14T14:34:29.014Z,4.45
2022-08-14T14:37:02.970Z,8.52
2022-08-14T14:39:31.254Z,4.88
2022-08-14T14:42:06.561Z,4.72
2022-08-14T14:44:40.460Z,5.72
2022-08-14T14:47:11.839Z,4.50
2022-08-14T14:49:54.628Z,5.15
2022-08-14T14:52:27.810Z,4.50
2022-08-14T14:54:58.394Z,4.82
2022-08-14T14:57:35.682Z,5.53
2022-08-14T15:00:19.548Z,4.80
2022-08-14T15:02:52.112Z,4.50
2022-08-14T15:05:22.232Z,5.13
2022-08-14T15:07:52.957Z,4.63
2022-08-14T15:10:28.279Z,5.97
2022-08-14T15:13:03.690Z,4.75
2022-08-14T15:15:37.507Z,5.03
2022-08-14T15:18:36.334Z,4.55
2022-08-14T15:20:58.211Z,4.97
2022-08-14T15:23:44.419Z,5.32
2022-08-14T15:26:24.369Z,4.68
2022-08-14T15:29:02.904Z,4.68
2022-08-14T15:31:32.801Z,4.82
2022-08-14T15:34:44.794Z,5.28
2022-08-14T15:36:59.373Z,4.97
2022-08-14T15:39:29.550Z,5.38
2022-08-14T15:42:03.050Z,4.60
2022-08-14T15:44:34.274Z,4.90
2022-08-14T15:47:02.096Z,5.30
2022-08-14T15:49:34.567Z,5.32
2022-08-14T15:52:04.286Z,5.20
2022-08-14T15:54:34.088Z,5.72
2022-08-14T15:57:09.681Z,5.40
2022-08-14T15:59:58.688Z,5.13
2022-08-14T16:02:28.172Z,5.33
2022-08-14T16:04:56.438Z,5.38
2022-08-14T16:07:29.244Z,5.15
2022-08-14T16:12:47.745Z,5.15
2022-08-14T16:15:17.147Z,5.93
2022-08-14T16:20:12.299Z,5.28
2022-08-14T16:23:00.618Z,5.60
2022-08-14T16:25:35.359Z,6.17
2022-08-14T16:28:03.581Z,5.32
2022-08-14T16:30:35.464Z,5.40
2022-08-14T16:33:04.979Z,5.40
2022-08-14T16:35:43.476Z,5.28
2022-08-14T16:38:46.174Z,4.95
2022-08-14T16:41:22.015Z,5.70
2022-08-14T16:43:52.570Z,5.53
2022-08-14T16:46:23.282Z,5.50
2022-08-14T16:48:54.867Z,5.20
2022-08-14T16:51:25.491Z,5.47
2022-08-14T16:53:54.716Z,5.22
2022-08-14T16:56:25.377Z,5.20
2022-08-14T16:59:14.929Z,5.93
2022-08-14T17:04:24.824Z,5.55
2022-08-14T17:06:55.141Z,6.50
2022-08-14T17:09:43.868Z,5.13
2022-08-14T17:12:28.643Z,5.60
2022-08-14T17:15:10.484Z,5.28
2022-08-14T17:17:41.570Z,5.55
2022-08-14T17:20:54.097Z,5.93
2022-08-14T17:23:10.891Z,5.43
2022-08-14T17:25:39.067Z,5.28
2022-08-14T17:31:02.744Z,5.43
2022-08-14T17:33:40.672Z,6.10
2022-08-14T17:36:21.800Z,5.75
2022-08-14T17:39:06.378Z,6.03
2022-08-14T17:41:43.708Z,6.15
2022-08-14T17:44:34.472Z,5.80
2022-08-14T17:47:10.197Z,5.85
2022-08-14T17:49:52.053Z,6.10
2022-08-14T17:52:34.781Z,6.10
2022-08-14T17:56:00.389Z,6.63
2022-08-14T17:57:58.865Z,6.35
2022-08-14T18:00:26.402Z,6.20
2022-08-14T18:02:57.873Z,6.70
2022-08-14T18:06:08.349Z,6.38
2022-08-14T18:08:33.775Z,6.07
2022-08-14T18:11:03.841Z,6.28
2022-08-14T18:13:50.986Z,6.03
2022-08-14T18:16:22.165Z,6.03
2022-08-14T18:18:51.535Z,6.15
2022-08-14T18:21:39.751Z,6.10
2022-08-14T18:24:28.524Z,6.07
2022-08-14T18:27:08.741Z,6.63
2022-08-14T18:29:54.686Z,6.82
2022-08-14T18:32:31.850Z,5.53
2022-08-14T18:35:10.934Z,6.40
2022-08-14T18:37:40.762Z,6.68
2022-08-14T18:40:17.766Z,7.03
2022-08-14T18:42:53.117Z,6.00
2022-08-14T18:45:28.837Z,7.53
2022-08-14T18:48:15.774Z,6.90
2022-08-14T18:51:03.186Z,6.72
2022-08-14T18:53:52.553Z,6.65
2022-08-14T18:56:41.210Z,6.43
2022-08-14T18:59:29.146Z,6.47
2022-08-14T19:02:30.263Z,6.25
2022-08-14T19:04:59.775Z,6.90
2022-08-14T19:07:34.026Z,6.72
2022-08-14T19:10:08.510Z,7.30
2022-08-14T19:13:11.916Z,7.00
2022-08-14T19:15:56.311Z,6.78
2022-08-14T19:18:38.404Z,7.00
2022-08-14T19:21:13.580Z,7.65
2022-08-14T19:23:44.146Z,8.18
2022-08-14T19:26:36.932Z,7.93
2022-08-14T19:29:23.601Z,8.30
2022-08-14T19:31:55.799Z,7.45
2022-08-14T19:34:52.343Z,7.63
2022-08-14T19:37:52.791Z,8.00
2022-08-14T19:40:42.816Z,7.40
2022-08-14T19:43:10.574Z,7.90
2022-08-14T19:45:38.797Z,8.18
2022-08-14T19:48:14.095Z,9.07
2022-08-14T19:50:44.300Z,7.70
2022-08-14T19:53:17.232Z,8.30
2022-08-14T19:56:00.795Z,8.10
2022-08-14T19:58:37.722Z,8.10
2022-08-14T20:01:36.722Z,7.82
2022-08-14T20:04:45.205Z,7.88
2022-08-14T20:07:01.577Z,8.48
2022-08-14T20:11:08.411Z,8.35
2022-08-14T20:12:36.659Z,7.80
2022-08-14T20:15:21.062Z,9.13
2022-08-14T20:17:52.353Z,8.68
2022-08-14T20:20:31.607Z,8.30
2022-08-14T20:23:11.146Z,7.55
2022-08-14T20:25:45.224Z,8.00
2022-08-14T20:28:30.678Z,9.73
2022-08-14T20:31:20.059Z,7.97
2022-08-14T20:34:35.687Z,8.38
2022-08-14T20:37:15.498Z,9.30
2022-08-14T20:39:54.438Z,8.75
2022-08-14T20:42:43.662Z,7.82
2022-08-14T20:45:27.599Z,8.30
2022-08-14T20:48:07.281Z,8.90
2022-08-14T20:50:45.177Z,7.90
2022-08-14T20:53:32.376Z,7.88
2022-08-14T20:56:04.822Z,8.70
2022-08-14T20:58:52.592Z,8.10
2022-08-14T21:01:19.776Z,7.97
2022-08-14T21:03:56.331Z,8.35
2022-08-14T21:06:29.576Z,8.27
2022-08-14T21:08:59.348Z,8.18
2022-08-14T21:11:28.180Z,8.02
2022-08-14T21:14:25.193Z,8.20
2022-08-14T21:16:58.292Z,8.32
2022-08-14T21:19:26.985Z,8.60
2022-08-14T21:21:56.261Z,8.55
2022-08-14T21:24:39.664Z,8.02
2022-08-14T21:27:20.420Z,8.45
2022-08-14T21:29:55.505Z,8.43
2022-08-14T21:32:50.484Z,8.10
2022-08-14T21:35:25.957Z,8.25
2022-08-14T21:37:53.917Z,8.20
2022-08-14T21:40:41.789Z,8.07
2022-08-14T21:43:14.921Z,8.40
2022-08-14T21:45:45.474Z,8.02
2022-08-14T21:48:21.490Z,8.10
2022-08-14T21:51:00.322Z,8.40
2022-08-14T21:53:32.221Z,8.02
2022-08-14T21:55:59.537Z,8.63
2022-08-14T21:58:54.157Z,10.82
2022-08-14T22:01:19.430Z,9.73
2022-08-14T22:03:54.999Z,9.02
2022-08-14T22:06:28.852Z,8.40
2022-08-14T22:08:58.228Z,8.35
2022-08-14T22:11:27.310Z,8.75
2022-08-14T22:13:56.099Z,9.07
2022-08-14T22:17:03.314Z,8.68
2022-08-14T22:19:14.927Z,8.13
2022-08-14T22:21:45.359Z,8.88
2022-08-14T22:24:37.515Z,8.35
2022-08-14T22:27:05.240Z,7.80
2022-08-14T22:29:34.706Z,8.63
2022-08-14T22:32:07.282Z,9.45
2022-08-14T22:34:35.179Z,8.43
2022-08-14T22:37:07.672Z,8.80
2022-08-14T22:40:17.294Z,8.70
2022-08-14T22:42:23.116Z,8.02
2022-08-14T22:44:51.928Z,8.60
2022-08-14T22:47:26.205Z,8.68
2022-08-14T22:50:30.726Z,9.15
2022-08-14T22:52:56.802Z,9.70
2022-08-14T22:57:54.523Z,8.73
2022-08-14T23:00:25.191Z,9.85
2022-08-14T23:02:57.411Z,8.10
2022-08-14T23:05:39.760Z,9.18
2022-08-14T23:08:59.554Z,8.77
2022-08-14T23:10:59.800Z,8.50
2022-08-14T23:13:26.891Z,9.68
2022-08-14T23:15:58.284Z,8.75
2022-08-14T23:18:29.507Z,8.88
2022-08-14T23:20:57.407Z,8.57
2022-08-14T23:23:26.862Z,8.57
2022-08-14T23:25:59.878Z,8.23
2022-08-14T23:28:33.281Z,8.73
2022-08-14T23:31:26.352Z,9.20
2022-08-14T23:34:06.693Z,9.07
2022-08-14T23:36:37.244Z,9.00
2022-08-14T23:39:10.310Z,9.70
2022-08-14T23:41:50.792Z,10.23
2022-08-14T23:44:21.605Z,9.43
2022-08-14T23:46:52.603Z,10.05
2022-08-14T23:49:25.486Z,9.82
2022-08-14T23:51:59.735Z,9.52
2022-08-14T23:54:49.142Z,9.43
2022-08-14T23:57:19.240Z,9.98
